Prattsburgh, New York
Current Conditions -  °F | °C
As of 2:53 PM on Thursday 27 Nov 2014 (Local Time) from KPEO Reporting Station
Scattered Clouds Scattered Clouds  
Wind Chill: 23°   Ceiling: Unl
Heat Index: 31°   Visibility: 10mi
Dew Point: 20°   Wind: 9mph
Humidity: 64%   Direction: 310°NW
Pressure: 30.02"   Gusts: NA
Location:  42.52°N, 77.26°W
Report Text: KPEO 271953Z AUTO 31008KT 10SM SCT036 M01/M07 A3002 RMK AO2 SLP178 T10061067
Loading
Personal Weather Stations






























Interactive Weather Map New forecast layout! Learn more

10-Day Weather Forecast

Advertisements
Track Severe Weather on mobile